createdAt,value
2022-10-18T00:00:06.168Z,16.00
2022-10-18T00:02:33.028Z,16.00
2022-10-18T00:04:59.931Z,16.00
2022-10-18T00:07:26.997Z,15.90
2022-10-18T00:09:54.146Z,15.90
2022-10-18T00:12:21.159Z,15.90
2022-10-18T00:14:51.851Z,15.90
2022-10-18T00:17:19.000Z,15.80
2022-10-18T00:19:46.633Z,15.80
2022-10-18T00:22:13.570Z,15.80
2022-10-18T00:24:40.431Z,15.80
2022-10-18T00:27:07.441Z,15.80
2022-10-18T00:29:34.674Z,15.90
2022-10-18T00:32:01.755Z,15.90
2022-10-18T00:34:28.568Z,15.80
2022-10-18T00:36:55.557Z,15.80
2022-10-18T00:39:22.927Z,15.80
2022-10-18T00:41:50.647Z,15.80
2022-10-18T00:44:17.708Z,15.70
2022-10-18T00:46:47.828Z,15.80
2022-10-18T00:49:19.433Z,15.70
2022-10-18T00:51:58.998Z,15.70
2022-10-18T00:54:27.561Z,15.70
2022-10-18T00:56:54.863Z,15.70
2022-10-18T00:59:22.344Z,15.80
2022-10-18T01:01:49.575Z,15.80
2022-10-18T01:04:18.237Z,15.80
2022-10-18T01:07:00.928Z,15.80
2022-10-18T01:09:41.021Z,15.80
2022-10-18T01:12:08.048Z,15.90
2022-10-18T01:14:45.480Z,15.90
2022-10-18T01:17:41.197Z,15.90
2022-10-18T01:20:41.054Z,15.80
2022-10-18T01:23:10.833Z,15.90
2022-10-18T01:26:07.724Z,15.90
2022-10-18T01:28:56.439Z,15.80
2022-10-18T01:31:31.638Z,15.80
2022-10-18T01:36:44.194Z,15.80
2022-10-18T01:39:18.843Z,15.80
2022-10-18T01:41:47.316Z,15.70
2022-10-18T01:44:19.310Z,15.70
2022-10-18T01:46:47.636Z,15.70
2022-10-18T01:49:14.432Z,15.70
2022-10-18T01:51:41.163Z,15.60
2022-10-18T01:54:09.946Z,15.70
2022-10-18T01:57:00.752Z,15.70
2022-10-18T01:59:42.986Z,15.70
2022-10-18T02:02:25.022Z,15.50
2022-10-18T02:05:00.832Z,15.40
2022-10-18T02:08:12.147Z,15.50
2022-10-18T02:10:53.061Z,15.50
2022-10-18T02:13:22.703Z,15.60
2022-10-18T02:15:54.648Z,15.50
2022-10-18T02:18:29.191Z,15.40
2022-10-18T02:20:58.396Z,15.30
2022-10-18T02:23:26.624Z,15.40
2022-10-18T02:25:53.977Z,15.50
2022-10-18T02:28:21.680Z,15.50
2022-10-18T02:31:11.076Z,15.40
2022-10-18T02:33:53.961Z,15.30
2022-10-18T02:36:31.319Z,15.50
2022-10-18T02:39:07.690Z,15.50
2022-10-18T02:41:34.522Z,15.50
2022-10-18T02:44:01.291Z,15.50
2022-10-18T02:46:28.161Z,15.40
2022-10-18T02:48:54.912Z,15.50
2022-10-18T02:51:21.879Z,15.50
2022-10-18T02:53:48.647Z,15.50
2022-10-18T02:56:15.414Z,15.60
2022-10-18T02:58:42.170Z,15.60
2022-10-18T03:01:09.008Z,15.50
2022-10-18T03:03:35.852Z,15.30
2022-10-18T03:06:02.750Z,15.20
2022-10-18T03:08:30.118Z,15.30
2022-10-18T03:10:56.789Z,15.40
2022-10-18T03:13:23.507Z,15.40
2022-10-18T03:15:50.305Z,15.50
2022-10-18T03:18:17.107Z,15.50
2022-10-18T03:20:43.843Z,15.40
2022-10-18T03:23:10.951Z,15.30
2022-10-18T03:25:39.546Z,15.30
2022-10-18T03:28:08.492Z,15.40
2022-10-18T03:30:35.248Z,15.50
2022-10-18T03:33:02.012Z,15.40
2022-10-18T03:35:28.782Z,15.20
2022-10-18T03:37:55.483Z,15.30
2022-10-18T03:40:22.293Z,15.30
2022-10-18T03:42:49.089Z,15.40
2022-10-18T03:45:15.833Z,15.20
2022-10-18T03:47:42.512Z,15.10
2022-10-18T03:50:10.213Z,15.10
2022-10-18T03:52:36.966Z,15.30
2022-10-18T03:55:04.070Z,15.30
2022-10-18T03:57:30.778Z,15.30
2022-10-18T03:59:57.527Z,15.30
2022-10-18T04:02:24.621Z,15.30
2022-10-18T04:04:52.293Z,15.30
2022-10-18T04:07:19.174Z,15.30
2022-10-18T04:09:46.043Z,15.30
2022-10-18T04:12:12.715Z,15.30
2022-10-18T04:14:39.525Z,15.30
2022-10-18T04:17:06.620Z,15.30
2022-10-18T04:19:33.445Z,15.30
2022-10-18T04:22:00.287Z,15.20
2022-10-18T04:24:27.124Z,15.20
2022-10-18T04:26:53.996Z,15.20
2022-10-18T04:29:20.872Z,15.20
2022-10-18T04:31:47.669Z,15.10
2022-10-18T04:34:14.544Z,15.00
2022-10-18T04:36:41.437Z,14.90
2022-10-18T04:39:08.105Z,14.80
2022-10-18T04:41:34.947Z,14.90
2022-10-18T04:44:01.722Z,14.90
2022-10-18T04:46:28.453Z,14.90
2022-10-18T04:48:55.266Z,14.80
2022-10-18T04:51:22.275Z,14.70
2022-10-18T04:53:49.022Z,14.80
2022-10-18T04:56:17.058Z,14.90
2022-10-18T04:58:43.837Z,14.80
2022-10-18T05:01:10.781Z,14.80
2022-10-18T05:03:37.672Z,14.80
2022-10-18T05:06:05.500Z,14.80
2022-10-18T05:08:33.566Z,14.90
2022-10-18T05:11:01.177Z,14.90
2022-10-18T05:13:28.403Z,14.90
2022-10-18T05:15:55.582Z,14.80
2022-10-18T05:18:22.431Z,14.80
2022-10-18T05:20:49.169Z,14.70
2022-10-18T05:23:15.873Z,14.70
2022-10-18T05:25:43.319Z,14.80
2022-10-18T05:28:21.087Z,14.80
2022-10-18T05:31:04.548Z,14.70
2022-10-18T05:33:31.785Z,14.70
2022-10-18T05:35:58.723Z,14.70
2022-10-18T05:38:25.743Z,14.80
2022-10-18T05:40:52.548Z,14.70
2022-10-18T05:43:19.400Z,14.80
2022-10-18T05:45:50.761Z,14.70
2022-10-18T05:48:18.409Z,14.70
2022-10-18T05:50:45.240Z,14.60
2022-10-18T05:53:18.510Z,14.60
2022-10-18T05:56:02.865Z,14.60
2022-10-18T05:58:29.767Z,14.50
2022-10-18T06:00:59.948Z,14.40
2022-10-18T06:03:27.762Z,14.30
2022-10-18T06:06:03.349Z,14.30
2022-10-18T06:08:30.306Z,14.30
2022-10-18T06:10:57.479Z,14.40
2022-10-18T06:13:24.427Z,14.50
2022-10-18T06:15:51.223Z,14.50
2022-10-18T06:18:17.974Z,14.40
2022-10-18T06:20:44.730Z,14.40
2022-10-18T06:23:11.533Z,14.40
2022-10-18T06:25:38.273Z,14.30
2022-10-18T06:28:07.924Z,14.20
2022-10-18T06:30:37.131Z,14.30
2022-10-18T06:33:04.035Z,14.40
2022-10-18T06:35:30.806Z,14.30
2022-10-18T06:37:57.820Z,14.30
2022-10-18T06:40:24.880Z,14.30
2022-10-18T06:43:00.142Z,14.40
2022-10-18T06:45:27.508Z,14.40
2022-10-18T06:47:54.235Z,14.30
2022-10-18T06:50:21.169Z,14.30
2022-10-18T06:52:48.939Z,14.40
2022-10-18T06:55:15.716Z,14.50
2022-10-18T06:57:42.497Z,14.50
2022-10-18T07:00:09.850Z,14.40
2022-10-18T07:02:37.763Z,14.50
2022-10-18T07:05:04.768Z,14.60
2022-10-18T07:07:32.009Z,14.60
2022-10-18T07:09:59.157Z,14.50
2022-10-18T07:12:25.936Z,14.40
2022-10-18T07:14:52.747Z,14.50
2022-10-18T07:17:19.501Z,14.40
2022-10-18T07:19:46.303Z,14.30
2022-10-18T07:22:13.088Z,14.40
2022-10-18T07:24:39.897Z,14.30
2022-10-18T07:27:06.939Z,14.30
2022-10-18T07:29:38.052Z,14.20
2022-10-18T07:32:05.394Z,14.30
2022-10-18T07:34:32.140Z,14.30
2022-10-18T07:36:58.910Z,14.20
2022-10-18T07:39:25.671Z,14.30
2022-10-18T07:41:52.534Z,14.40
2022-10-18T07:44:19.254Z,14.40
2022-10-18T07:46:46.105Z,14.50
2022-10-18T07:49:12.877Z,14.50
2022-10-18T07:51:39.667Z,14.60
2022-10-18T07:54:06.441Z,14.70
2022-10-18T07:56:33.180Z,14.70
2022-10-18T07:58:59.913Z,14.70
2022-10-18T08:01:26.782Z,14.80
2022-10-18T08:03:54.251Z,14.90
2022-10-18T08:06:22.995Z,14.80
2022-10-18T08:08:50.169Z,14.90
2022-10-18T08:11:22.905Z,14.90
2022-10-18T08:13:50.311Z,14.70
2022-10-18T08:16:28.532Z,14.70
2022-10-18T08:18:58.009Z,14.90
2022-10-18T08:21:25.073Z,14.80
2022-10-18T08:23:51.898Z,14.80
2022-10-18T08:26:21.079Z,14.90
2022-10-18T08:28:54.171Z,15.00
2022-10-18T08:31:25.653Z,15.10
2022-10-18T08:33:54.315Z,15.00
2022-10-18T08:36:21.061Z,15.10
2022-10-18T08:38:49.259Z,15.20
2022-10-18T08:41:54.652Z,14.90
2022-10-18T08:44:31.726Z,15.10
2022-10-18T08:47:11.886Z,15.20
2022-10-18T08:49:47.407Z,15.60
2022-10-18T08:55:21.607Z,15.60
2022-10-18T08:57:50.891Z,16.00
2022-10-18T09:00:20.542Z,16.10
2022-10-18T09:03:06.014Z,16.50
2022-10-18T09:05:56.277Z,16.50
2022-10-18T09:08:39.386Z,16.30
2022-10-18T09:11:26.910Z,16.50
2022-10-18T09:14:02.598Z,16.20
2022-10-18T09:16:47.916Z,16.10
2022-10-18T09:19:32.807Z,16.40
2022-10-18T09:22:08.954Z,16.80
2022-10-18T09:24:43.498Z,16.90
2022-10-18T09:27:22.405Z,16.70
2022-10-18T09:30:04.438Z,16.80
2022-10-18T09:33:02.394Z,17.20
2022-10-18T09:35:52.452Z,17.60
2022-10-18T09:41:04.584Z,17.90
2022-10-18T09:43:57.104Z,18.10
2022-10-18T09:46:30.332Z,18.10
2022-10-18T09:49:07.075Z,18.00
2022-10-18T09:51:42.779Z,18.20
2022-10-18T09:54:19.395Z,18.40
2022-10-18T09:59:29.136Z,18.60
2022-10-18T10:01:56.220Z,18.50
2022-10-18T10:04:23.043Z,18.60
2022-10-18T10:06:52.102Z,18.60
2022-10-18T10:09:27.404Z,18.60
2022-10-18T10:11:55.750Z,18.60
2022-10-18T10:14:27.880Z,18.20
2022-10-18T10:17:05.726Z,18.30
2022-10-18T10:19:54.525Z,18.40
2022-10-18T10:22:32.045Z,18.40
2022-10-18T10:24:59.866Z,18.50
2022-10-18T10:27:34.088Z,18.50
2022-10-18T10:30:20.718Z,18.20
2022-10-18T10:32:49.909Z,18.00
2022-10-18T10:35:42.162Z,18.20
2022-10-18T10:38:27.105Z,18.10
2022-10-18T10:40:54.441Z,18.50
2022-10-18T10:43:39.390Z,18.30
2022-10-18T10:46:19.099Z,18.30
2022-10-18T10:49:21.021Z,18.50
2022-10-18T10:51:45.254Z,18.60
2022-10-18T10:54:16.864Z,18.70
2022-10-18T10:57:01.191Z,18.80
2022-10-18T10:59:37.820Z,18.90
2022-10-18T11:02:32.166Z,19.00
2022-10-18T11:05:26.565Z,19.10
2022-10-18T11:07:58.143Z,18.70
2022-10-18T11:10:30.870Z,18.80
2022-10-18T11:13:24.044Z,19.20
2022-10-18T11:15:55.075Z,19.30
2022-10-18T11:18:34.609Z,19.10
2022-10-18T11:21:08.206Z,19.20
2022-10-18T11:23:37.609Z,19.10
2022-10-18T11:26:13.264Z,19.00
2022-10-18T11:28:57.998Z,18.90
2022-10-18T11:31:32.529Z,19.30
2022-10-18T11:34:27.112Z,19.60
2022-10-18T11:37:26.483Z,19.80
2022-10-18T11:39:56.552Z,20.10
2022-10-18T11:42:52.374Z,20.40
2022-10-18T11:45:49.145Z,20.90
2022-10-18T11:48:34.699Z,21.00
2022-10-18T11:51:19.496Z,21.10
2022-10-18T11:54:07.668Z,21.60
2022-10-18T11:56:47.987Z,21.60
2022-10-18T11:59:37.055Z,21.50
2022-10-18T12:02:36.507Z,21.60
2022-10-18T12:05:23.100Z,21.20
2022-10-18T12:08:02.126Z,21.60
2022-10-18T12:10:45.670Z,22.00
2022-10-18T12:13:39.222Z,22.50
2022-10-18T12:16:08.504Z,22.70
2022-10-18T12:18:41.671Z,22.70
2022-10-18T12:21:08.484Z,23.00
2022-10-18T12:23:54.240Z,23.10
2022-10-18T12:26:21.542Z,23.30
2022-10-18T12:29:13.467Z,23.30
2022-10-18T12:32:12.002Z,23.10
2022-10-18T12:34:47.028Z,23.50
2022-10-18T12:37:38.821Z,23.30
2022-10-18T12:40:17.022Z,23.40
2022-10-18T12:42:50.159Z,23.50
2022-10-18T12:45:23.813Z,23.70
2022-10-18T12:47:51.167Z,23.50
2022-10-18T12:50:30.158Z,23.80
2022-10-18T12:53:07.777Z,23.80
2022-10-18T12:55:40.392Z,23.70
2022-10-18T12:58:29.306Z,23.40
2022-10-18T13:01:02.297Z,23.20
2022-10-18T13:03:50.397Z,22.90
2022-10-18T13:06:17.323Z,23.00
2022-10-18T13:08:46.009Z,22.70
2022-10-18T13:11:12.841Z,22.40
2022-10-18T13:14:12.634Z,22.20
2022-10-18T13:17:01.399Z,22.20
2022-10-18T13:19:47.211Z,22.10
2022-10-18T13:22:35.101Z,21.90
2022-10-18T13:25:14.177Z,21.90
2022-10-18T13:27:45.132Z,21.60
2022-10-18T13:30:28.008Z,21.50
2022-10-18T13:33:27.414Z,21.30
2022-10-18T13:35:58.447Z,21.20
2022-10-18T13:38:39.159Z,21.30
2022-10-18T13:41:18.551Z,21.20
2022-10-18T13:44:04.462Z,21.10
2022-10-18T13:46:34.263Z,21.20
2022-10-18T13:49:26.800Z,21.00
2022-10-18T13:52:24.431Z,21.20
2022-10-18T13:55:36.578Z,21.40
2022-10-18T13:58:49.026Z,21.50
2022-10-18T14:01:42.718Z,21.60
2022-10-18T14:04:34.070Z,21.90
2022-10-18T14:07:04.957Z,21.30
2022-10-18T14:09:48.843Z,21.30
2022-10-18T14:12:23.990Z,21.50
2022-10-18T14:15:02.469Z,21.60
2022-10-18T14:20:16.663Z,21.40
2022-10-18T14:23:10.336Z,21.40
2022-10-18T14:25:38.470Z,21.60
2022-10-18T14:28:21.663Z,21.40
2022-10-18T14:30:58.970Z,21.40
2022-10-18T14:33:27.299Z,21.80
2022-10-18T14:36:19.923Z,21.60
2022-10-18T14:38:51.867Z,21.70
2022-10-18T14:41:21.496Z,21.30
2022-10-18T14:43:48.933Z,21.20
2022-10-18T14:46:17.920Z,21.60
2022-10-18T14:48:54.432Z,21.70
2022-10-18T14:51:21.860Z,21.50
2022-10-18T14:53:49.447Z,21.50
2022-10-18T14:56:21.629Z,21.50
2022-10-18T14:58:48.438Z,21.70
2022-10-18T15:01:25.584Z,21.70
2022-10-18T15:04:00.167Z,21.00
2022-10-18T15:06:27.517Z,20.80
2022-10-18T15:08:57.908Z,21.00
2022-10-18T15:11:26.380Z,20.90
2022-10-18T15:14:00.762Z,20.80
2022-10-18T15:16:30.501Z,21.00
2022-10-18T15:19:14.842Z,20.70
2022-10-18T15:22:30.190Z,20.70
2022-10-18T15:25:14.806Z,20.70
2022-10-18T15:27:45.222Z,20.30
2022-10-18T15:30:25.616Z,20.40
2022-10-18T15:33:04.562Z,20.00
2022-10-18T15:35:33.835Z,20.00
2022-10-18T15:38:13.304Z,19.90
2022-10-18T15:40:41.098Z,20.00
2022-10-18T15:43:23.213Z,19.90
2022-10-18T15:46:01.579Z,19.60
2022-10-18T15:48:35.577Z,19.50
2022-10-18T15:51:27.123Z,19.20
2022-10-18T15:53:54.582Z,18.90
2022-10-18T15:56:31.295Z,18.90
2022-10-18T15:59:00.846Z,18.70
2022-10-18T16:01:45.543Z,18.70
2022-10-18T16:04:20.011Z,18.60
2022-10-18T16:06:46.747Z,18.30
2022-10-18T16:09:16.921Z,18.30
2022-10-18T16:11:44.132Z,18.20
2022-10-18T16:14:10.865Z,18.00
2022-10-18T16:16:39.249Z,18.00
2022-10-18T16:19:06.779Z,18.00
2022-10-18T16:21:36.344Z,18.00
2022-10-18T16:24:03.473Z,17.90
2022-10-18T16:26:30.795Z,17.80
2022-10-18T16:28:58.849Z,17.80
2022-10-18T16:31:31.904Z,17.80
2022-10-18T16:33:59.436Z,17.70
2022-10-18T16:36:31.396Z,17.60
2022-10-18T16:39:01.310Z,17.60
2022-10-18T16:41:28.585Z,17.40
2022-10-18T16:43:55.508Z,17.30
2022-10-18T16:46:27.490Z,17.30
2022-10-18T16:48:54.866Z,17.20
2022-10-18T16:51:21.907Z,17.10
2022-10-18T16:53:48.917Z,17.20
2022-10-18T16:56:22.165Z,17.10
2022-10-18T16:58:49.506Z,17.00
2022-10-18T17:01:19.118Z,16.90
2022-10-18T17:03:46.984Z,16.90
2022-10-18T17:06:22.665Z,16.80
2022-10-18T17:08:50.040Z,16.70
2022-10-18T17:11:18.009Z,16.60
2022-10-18T17:13:45.365Z,16.50
2022-10-18T17:16:23.193Z,16.60
2022-10-18T17:18:50.405Z,16.50
2022-10-18T17:21:17.244Z,16.40
2022-10-18T17:23:44.025Z,16.40
2022-10-18T17:26:28.392Z,16.30
2022-10-18T17:29:00.939Z,16.30
2022-10-18T17:31:29.414Z,16.10
2022-10-18T17:33:58.427Z,16.10
2022-10-18T17:36:25.394Z,16.20
2022-10-18T17:38:53.520Z,16.10
2022-10-18T17:41:21.047Z,16.00
2022-10-18T17:43:50.744Z,16.00
2022-10-18T17:46:18.058Z,15.90
2022-10-18T17:48:45.619Z,15.80
2022-10-18T17:51:15.430Z,15.80
2022-10-18T17:53:42.716Z,15.70
2022-10-18T17:56:11.360Z,15.50
2022-10-18T17:58:38.150Z,15.50
2022-10-18T18:01:19.905Z,15.60
2022-10-18T18:03:49.690Z,15.40
2022-10-18T18:06:22.599Z,15.30
2022-10-18T18:08:50.032Z,15.20
2022-10-18T18:11:18.279Z,15.20
2022-10-18T18:13:45.237Z,15.20
2022-10-18T18:16:21.121Z,15.30
2022-10-18T18:18:50.407Z,15.30
2022-10-18T18:21:17.269Z,15.30
2022-10-18T18:23:44.001Z,15.30
2022-10-18T18:26:10.892Z,15.20
2022-10-18T18:28:37.994Z,15.00
2022-10-18T18:31:09.992Z,14.90
2022-10-18T18:33:37.529Z,15.00
2022-10-18T18:36:05.438Z,15.00
2022-10-18T18:38:32.918Z,14.90
2022-10-18T18:41:20.248Z,14.90
2022-10-18T18:43:57.760Z,14.70
2022-10-18T18:46:26.230Z,14.80
2022-10-18T18:48:53.700Z,14.90
2022-10-18T18:51:22.079Z,14.60
2022-10-18T18:54:04.996Z,14.60
2022-10-18T18:56:31.840Z,14.60
2022-10-18T18:59:01.505Z,14.50
2022-10-18T19:01:30.912Z,14.60
2022-10-18T19:03:58.715Z,14.60
2022-10-18T19:06:27.105Z,14.60
2022-10-18T19:09:00.190Z,14.50
2022-10-18T19:11:28.292Z,14.50
2022-10-18T19:13:55.555Z,14.40
2022-10-18T19:16:28.451Z,14.30
2022-10-18T19:19:05.253Z,14.30
2022-10-18T19:21:37.822Z,14.20
2022-10-18T19:24:05.686Z,14.20
2022-10-18T19:26:35.688Z,14.20
2022-10-18T19:29:16.123Z,14.30
2022-10-18T19:31:43.931Z,14.20
2022-10-18T19:34:13.220Z,14.30
2022-10-18T19:36:42.316Z,14.30
2022-10-18T19:39:13.557Z,14.20
2022-10-18T19:41:40.318Z,14.10
2022-10-18T19:44:07.208Z,14.00
2022-10-18T19:46:33.995Z,13.90
2022-10-18T19:49:00.738Z,13.90
2022-10-18T19:51:28.436Z,13.90
2022-10-18T19:53:56.535Z,13.90
2022-10-18T19:56:24.669Z,13.80
2022-10-18T19:58:52.131Z,13.90
2022-10-18T20:01:19.408Z,13.80
2022-10-18T20:03:47.416Z,13.80
2022-10-18T20:06:14.288Z,13.80
2022-10-18T20:11:15.223Z,13.80
2022-10-18T20:13:42.574Z,13.90
2022-10-18T20:16:11.442Z,13.80
2022-10-18T20:18:38.428Z,13.70
2022-10-18T20:21:09.116Z,13.70
2022-10-18T20:23:38.234Z,13.70
2022-10-18T20:26:11.993Z,13.50
2022-10-18T20:28:41.093Z,13.50
2022-10-18T20:31:18.201Z,13.40
2022-10-18T20:33:46.862Z,13.40
2022-10-18T20:36:18.356Z,13.40
2022-10-18T20:38:47.594Z,13.30
2022-10-18T20:41:30.379Z,13.30
2022-10-18T20:43:59.276Z,13.20
2022-10-18T20:46:27.401Z,13.20
2022-10-18T20:48:54.761Z,13.20
2022-10-18T20:51:22.424Z,13.10
2022-10-18T20:53:50.004Z,13.00
2022-10-18T20:56:21.968Z,13.00
2022-10-18T20:58:51.499Z,13.00
2022-10-18T21:01:29.470Z,12.90
2022-10-18T21:03:58.395Z,12.90
2022-10-18T21:06:30.446Z,12.90
2022-10-18T21:08:59.687Z,12.90
2022-10-18T21:11:27.969Z,12.90
2022-10-18T21:13:58.891Z,12.90
2022-10-18T21:16:26.729Z,12.90
2022-10-18T21:18:53.686Z,12.90
2022-10-18T21:21:23.003Z,12.90
2022-10-18T21:23:50.648Z,12.90
2022-10-18T21:26:22.813Z,12.90
2022-10-18T21:28:51.094Z,12.80
2022-10-18T21:31:23.391Z,12.70
2022-10-18T21:33:58.044Z,12.70
2022-10-18T21:36:26.573Z,12.60
2022-10-18T21:38:53.640Z,12.70
2022-10-18T21:41:22.207Z,12.60
2022-10-18T21:43:51.390Z,12.70
2022-10-18T21:46:19.433Z,12.60
2022-10-18T21:48:47.901Z,12.60
2022-10-18T21:51:20.320Z,12.50
2022-10-18T21:53:49.220Z,12.50
2022-10-18T21:56:19.211Z,12.50
2022-10-18T21:58:46.646Z,12.50
2022-10-18T22:01:20.156Z,12.40
2022-10-18T22:03:49.459Z,12.40
2022-10-18T22:06:17.254Z,12.40
2022-10-18T22:08:52.646Z,12.50
2022-10-18T22:11:22.902Z,12.50
2022-10-18T22:13:49.802Z,12.40
2022-10-18T22:16:17.332Z,12.30
2022-10-18T22:18:45.873Z,12.20
2022-10-18T22:21:15.346Z,12.30
2022-10-18T22:23:48.063Z,12.30
2022-10-18T22:26:22.305Z,12.20
2022-10-18T22:29:00.876Z,12.30
2022-10-18T22:31:30.890Z,12.10
2022-10-18T22:34:03.636Z,12.00
2022-10-18T22:36:32.752Z,12.00
2022-10-18T22:38:59.874Z,12.10
2022-10-18T22:41:26.991Z,12.10
2022-10-18T22:43:53.749Z,12.10
2022-10-18T22:46:20.577Z,12.20
2022-10-18T22:48:47.915Z,12.20
2022-10-18T22:51:14.925Z,12.10
2022-10-18T22:53:41.901Z,12.10
2022-10-18T22:56:13.270Z,12.00
2022-10-18T22:58:39.988Z,12.00
2022-10-18T23:01:09.123Z,11.90
2022-10-18T23:03:36.376Z,12.00
2022-10-18T23:06:04.283Z,11.90
2022-10-18T23:08:31.323Z,11.80
2022-10-18T23:10:59.680Z,11.80
2022-10-18T23:13:27.612Z,11.70
2022-10-18T23:16:04.367Z,11.70
2022-10-18T23:18:32.428Z,11.70
2022-10-18T23:21:08.292Z,11.60
2022-10-18T23:23:36.612Z,11.60
2022-10-18T23:26:05.683Z,11.70
2022-10-18T23:28:37.035Z,11.70
2022-10-18T23:31:11.302Z,11.70
2022-10-18T23:33:38.678Z,11.70
2022-10-18T23:36:07.367Z,11.60
2022-10-18T23:38:36.138Z,11.50
2022-10-18T23:41:03.018Z,11.60
2022-10-18T23:43:29.901Z,11.50
2022-10-18T23:45:56.641Z,11.60
2022-10-18T23:48:23.599Z,11.60
2022-10-18T23:50:50.367Z,11.50
2022-10-18T23:53:19.600Z,11.40
2022-10-18T23:56:08.469Z,11.40
2022-10-18T23:58:36.174Z,11.40
